Terminal Aerodrome Forecast
Issued by NWS Mt. Holly, NJ

Home | Current Version | Previous Version | Text Only | Print | Product List | Glossary On
Versions: 1 2 3 4 5 6 7 8 9 10 11 12 13 14 15 16
996
FTUS41 KPHI 211721
TAFABE
TAF
KABE 211721Z 2118/2218 16006KT P6SM BKN250
     FM220800 18004KT P6SM SCT050 OVC080
      TEMPO 2208/2212 5SM -SHRA BR OVC020
     FM221200 VRB03KT P6SM FEW030 OVC070=

USA.gov is the U.S. government's official web portal to all federal, state and local government web resources and services.